createdAt,value
2018-12-13T00:00:13.648Z,2.90
2018-12-13T00:02:40.140Z,2.90
2018-12-13T00:05:06.644Z,2.90
2018-12-13T00:07:33.920Z,2.90
2018-12-13T00:10:00.090Z,2.80
2018-12-13T00:12:26.395Z,2.80
2018-12-13T00:14:52.662Z,2.80
2018-12-13T00:17:19.092Z,2.80
2018-12-13T00:19:45.470Z,2.80
2018-12-13T00:22:17.983Z,2.80
2018-12-13T00:24:44.979Z,2.80
2018-12-13T00:27:11.161Z,2.80
2018-12-13T00:29:37.616Z,2.80
2018-12-13T00:32:04.060Z,2.80
2018-12-13T00:34:31.071Z,2.90
2018-12-13T00:36:57.359Z,2.90
2018-12-13T00:39:23.660Z,2.90
2018-12-13T00:41:56.219Z,2.90
2018-12-13T00:44:22.611Z,2.90
2018-12-13T00:46:48.912Z,2.90
2018-12-13T00:49:15.324Z,2.90
2018-12-13T00:51:41.636Z,2.90
2018-12-13T00:54:07.972Z,2.80
2018-12-13T00:56:35.119Z,2.80
2018-12-13T00:59:01.419Z,2.80
2018-12-13T01:01:27.727Z,2.70
2018-12-13T01:03:54.539Z,2.80
2018-12-13T01:06:21.685Z,2.80
2018-12-13T01:08:48.039Z,2.80
2018-12-13T01:11:14.304Z,2.80
2018-12-13T01:13:40.582Z,2.80
2018-12-13T01:16:08.912Z,2.80
2018-12-13T01:18:41.343Z,2.80
2018-12-13T01:21:07.506Z,2.80
2018-12-13T01:23:33.810Z,2.80
2018-12-13T01:25:59.967Z,2.80
2018-12-13T01:28:26.142Z,2.70
2018-12-13T01:30:52.451Z,2.70
2018-12-13T01:33:18.773Z,2.60
2018-12-13T01:35:45.107Z,2.60
2018-12-13T01:38:11.278Z,2.60
2018-12-13T01:40:38.669Z,2.60
2018-12-13T01:43:05.743Z,2.60
2018-12-13T01:45:32.685Z,2.60
2018-12-13T01:47:58.987Z,2.60
2018-12-13T01:50:26.140Z,2.60
2018-12-13T01:52:58.529Z,2.60
2018-12-13T01:55:24.736Z,2.70
2018-12-13T01:57:51.811Z,2.80
2018-12-13T02:00:18.940Z,2.80
2018-12-13T02:02:45.212Z,2.80
2018-12-13T02:05:13.678Z,2.70
2018-12-13T02:07:46.136Z,2.70
2018-12-13T02:10:12.380Z,2.70
2018-12-13T02:12:38.604Z,2.60
2018-12-13T02:15:06.071Z,2.60
2018-12-13T02:17:32.397Z,2.50
2018-12-13T02:19:58.576Z,2.50
2018-12-13T02:22:30.980Z,2.50
2018-12-13T02:25:04.259Z,2.40
2018-12-13T02:27:30.558Z,2.40
2018-12-13T02:30:04.585Z,2.40
2018-12-13T02:32:38.491Z,2.40
2018-12-13T02:35:04.836Z,2.30
2018-12-13T02:37:31.123Z,2.30
2018-12-13T02:40:04.428Z,2.30
2018-12-13T02:42:30.778Z,2.30
2018-12-13T02:44:56.927Z,2.20
2018-12-13T02:47:23.191Z,2.20
2018-12-13T02:49:49.491Z,2.20
2018-12-13T02:52:22.171Z,2.20
2018-12-13T02:54:48.355Z,2.20
2018-12-13T02:57:15.579Z,2.10
2018-12-13T02:59:41.826Z,2.20
2018-12-13T03:02:08.135Z,2.20
2018-12-13T03:04:34.403Z,2.10
2018-12-13T03:07:00.892Z,2.10
2018-12-13T03:09:27.217Z,2.10
2018-12-13T03:11:59.996Z,2.10
2018-12-13T03:14:26.374Z,2.10
2018-12-13T03:16:53.557Z,2.10
2018-12-13T03:19:19.946Z,2.10
2018-12-13T03:21:46.226Z,2.00
2018-12-13T03:24:18.675Z,2.00
2018-12-13T03:26:44.962Z,2.00
2018-12-13T03:29:11.381Z,2.00
2018-12-13T03:31:37.983Z,2.00
2018-12-13T03:34:05.280Z,2.00
2018-12-13T03:36:31.576Z,2.00
2018-12-13T03:38:57.954Z,2.00
2018-12-13T03:41:30.797Z,2.00
2018-12-13T03:43:57.180Z,2.00
2018-12-13T03:46:24.625Z,1.90
2018-12-13T03:48:51.027Z,1.90
2018-12-13T03:51:24.291Z,1.90
2018-12-13T03:53:50.561Z,1.90
2018-12-13T03:56:23.030Z,1.80
2018-12-13T03:58:49.312Z,1.80
2018-12-13T04:01:15.925Z,1.80
2018-12-13T04:03:42.302Z,1.80
2018-12-13T04:06:08.595Z,1.80
2018-12-13T04:08:34.767Z,1.70
2018-12-13T04:11:01.065Z,1.70
2018-12-13T04:13:27.413Z,1.70
2018-12-13T04:15:53.568Z,1.70
2018-12-13T04:18:19.734Z,1.70
2018-12-13T04:20:52.220Z,1.70
2018-12-13T04:23:18.502Z,1.70
2018-12-13T04:25:44.820Z,1.70
2018-12-13T04:28:11.018Z,1.60
2018-12-13T04:30:38.274Z,1.70
2018-12-13T04:33:04.643Z,1.70
2018-12-13T04:35:31.016Z,1.60
2018-12-13T04:37:57.295Z,1.60
2018-12-13T04:40:23.570Z,1.60
2018-12-13T04:42:49.890Z,1.60
2018-12-13T04:45:16.297Z,1.60
2018-12-13T04:47:42.402Z,1.60
2018-12-13T04:50:08.835Z,1.60
2018-12-13T04:52:35.040Z,1.50
2018-12-13T04:55:01.547Z,1.50
2018-12-13T04:57:27.821Z,1.50
2018-12-13T04:59:54.048Z,1.50
2018-12-13T05:02:21.123Z,1.50
2018-12-13T05:04:47.434Z,1.50
2018-12-13T05:07:14.653Z,1.50
2018-12-13T05:09:45.972Z,1.40
2018-12-13T05:12:12.211Z,1.40
2018-12-13T05:14:38.372Z,1.40
2018-12-13T05:17:10.837Z,1.40
2018-12-13T05:19:43.369Z,1.40
2018-12-13T05:22:09.556Z,1.40
2018-12-13T05:24:35.738Z,1.40
2018-12-13T05:27:01.875Z,1.40
2018-12-13T05:29:28.229Z,1.40
2018-12-13T05:31:54.662Z,1.40
2018-12-13T05:34:21.934Z,1.30
2018-12-13T05:36:49.044Z,1.30
2018-12-13T05:39:16.131Z,1.30
2018-12-13T05:41:42.383Z,1.30
2018-12-13T05:44:08.673Z,1.30
2018-12-13T05:46:34.921Z,1.30
2018-12-13T05:49:01.177Z,1.30
2018-12-13T05:51:27.421Z,1.20
2018-12-13T05:53:53.680Z,1.20
2018-12-13T05:56:20.090Z,1.30
2018-12-13T05:58:52.698Z,1.30
2018-12-13T06:01:18.997Z,1.30
2018-12-13T06:03:46.275Z,1.30
2018-12-13T06:06:12.632Z,1.30
2018-12-13T06:08:45.099Z,1.30
2018-12-13T06:11:11.291Z,1.30
2018-12-13T06:13:43.879Z,1.30
2018-12-13T06:16:10.043Z,1.30
2018-12-13T06:18:36.329Z,1.30
2018-12-13T06:21:03.473Z,1.30
2018-12-13T06:23:30.456Z,1.30
2018-12-13T06:25:56.835Z,1.30
2018-12-13T06:28:29.195Z,1.30
2018-12-13T06:31:01.615Z,1.30
2018-12-13T06:33:28.337Z,1.20
2018-12-13T06:35:54.777Z,1.10
2018-12-13T06:38:21.084Z,1.20
2018-12-13T06:40:47.490Z,1.20
2018-12-13T06:43:14.716Z,1.20
2018-12-13T06:45:41.236Z,1.20
2018-12-13T06:48:07.544Z,1.20
2018-12-13T06:50:37.115Z,1.20
2018-12-13T06:53:03.555Z,1.20
2018-12-13T06:55:29.868Z,1.20
2018-12-13T06:58:02.570Z,1.30
2018-12-13T07:00:29.072Z,1.20
2018-12-13T07:02:55.335Z,1.20
2018-12-13T07:05:28.003Z,1.30
2018-12-13T07:07:54.465Z,1.30
2018-12-13T07:10:27.002Z,1.30
2018-12-13T07:12:59.660Z,1.40
2018-12-13T07:15:32.155Z,1.40
2018-12-13T07:17:58.362Z,1.50
2018-12-13T07:20:31.100Z,1.50
2018-12-13T07:23:03.666Z,1.50
2018-12-13T07:25:36.184Z,1.50
2018-12-13T07:28:02.530Z,1.50
2018-12-13T07:30:28.796Z,1.50
2018-12-13T07:33:01.591Z,1.50
2018-12-13T07:35:28.075Z,1.50
2018-12-13T07:38:00.480Z,1.50
2018-12-13T07:40:26.831Z,1.50
2018-12-13T07:42:53.915Z,1.50
2018-12-13T07:45:20.297Z,1.50
2018-12-13T07:47:46.691Z,1.50
2018-12-13T07:50:19.129Z,1.60
2018-12-13T07:52:46.210Z,1.60
2018-12-13T07:55:12.546Z,1.60
2018-12-13T07:57:38.947Z,1.60
2018-12-13T08:00:07.889Z,1.60
2018-12-13T08:02:34.827Z,1.70
2018-12-13T08:05:02.913Z,1.70
2018-12-13T08:07:35.541Z,1.70
2018-12-13T08:10:03.124Z,1.80
2018-12-13T08:12:29.317Z,1.80
2018-12-13T08:15:02.041Z,1.90
2018-12-13T08:17:34.616Z,1.90
2018-12-13T08:20:07.244Z,1.90
2018-12-13T08:22:34.574Z,1.90
2018-12-13T08:25:01.037Z,1.90
2018-12-13T08:27:27.437Z,2.00
2018-12-13T08:29:59.840Z,2.00
2018-12-13T08:32:26.222Z,2.00
2018-12-13T08:34:52.516Z,2.00
2018-12-13T08:37:24.916Z,2.00
2018-12-13T08:39:51.382Z,2.10
2018-12-13T08:42:18.034Z,2.10
2018-12-13T08:44:44.342Z,2.10
2018-12-13T08:47:11.739Z,2.10
2018-12-13T08:49:44.194Z,2.10
2018-12-13T08:52:18.739Z,2.10
2018-12-13T08:54:45.302Z,2.10
2018-12-13T08:57:11.460Z,2.10
2018-12-13T08:59:37.876Z,2.10
2018-12-13T09:02:04.240Z,2.20
2018-12-13T09:04:30.524Z,2.20
2018-12-13T09:06:57.118Z,2.20
2018-12-13T09:09:23.643Z,2.30
2018-12-13T09:11:50.217Z,2.30
2018-12-13T09:14:17.775Z,2.30
2018-12-13T09:16:44.111Z,2.40
2018-12-13T09:19:10.577Z,2.40
2018-12-13T09:21:37.228Z,2.40
2018-12-13T09:24:03.699Z,2.40
2018-12-13T09:26:30.011Z,2.40
2018-12-13T09:28:57.502Z,2.50
2018-12-13T09:31:24.067Z,2.50
2018-12-13T09:33:50.825Z,2.50
2018-12-13T09:36:17.286Z,2.50
2018-12-13T09:38:43.839Z,2.50
2018-12-13T09:41:16.659Z,2.50
2018-12-13T09:43:43.774Z,2.50
2018-12-13T09:46:10.322Z,2.50
2018-12-13T09:48:36.637Z,2.50
2018-12-13T09:51:03.110Z,2.40
2018-12-13T09:53:33.292Z,2.40
2018-12-13T09:55:59.696Z,2.40
2018-12-13T09:58:26.072Z,2.40
2018-12-13T10:00:52.355Z,2.40
2018-12-13T10:03:19.618Z,2.40
2018-12-13T10:05:52.192Z,2.40
2018-12-13T10:08:18.605Z,2.40
2018-12-13T10:10:51.419Z,2.40
2018-12-13T10:13:18.141Z,2.40
2018-12-13T10:15:44.530Z,2.40
2018-12-13T10:18:10.946Z,2.50
2018-12-13T10:20:38.933Z,2.50
2018-12-13T10:23:05.700Z,2.50
2018-12-13T10:25:33.873Z,2.50
2018-12-13T10:28:00.352Z,2.50
2018-12-13T10:30:26.615Z,2.50
2018-12-13T10:32:52.801Z,2.50
2018-12-13T10:35:20.368Z,2.50
2018-12-13T10:37:46.645Z,2.50
2018-12-13T10:40:12.988Z,2.50
2018-12-13T10:42:40.507Z,2.60
2018-12-13T10:45:07.015Z,2.60
2018-12-13T10:47:34.028Z,2.70
2018-12-13T10:50:00.426Z,2.70
2018-12-13T10:52:33.884Z,2.70
2018-12-13T10:55:00.285Z,2.70
2018-12-13T10:57:33.191Z,2.70
2018-12-13T11:00:08.080Z,2.70
2018-12-13T11:02:54.183Z,2.70
2018-12-13T11:05:20.658Z,2.70
2018-12-13T11:07:53.383Z,2.70
2018-12-13T11:10:25.258Z,2.70
2018-12-13T11:12:48.043Z,2.70
2018-12-13T11:15:14.275Z,2.80
2018-12-13T11:17:46.775Z,2.80
2018-12-13T11:20:13.210Z,2.90
2018-12-13T11:22:39.603Z,2.90
2018-12-13T11:25:05.978Z,3.00
2018-12-13T11:27:46.475Z,3.00
2018-12-13T11:30:23.466Z,3.00
2018-12-13T11:32:56.163Z,3.00
2018-12-13T11:35:23.344Z,3.00
2018-12-13T11:37:50.636Z,3.00
2018-12-13T11:40:17.111Z,3.00
2018-12-13T11:42:43.434Z,3.00
2018-12-13T11:45:16.393Z,3.10
2018-12-13T11:47:49.141Z,3.10
2018-12-13T11:50:15.427Z,3.10
2018-12-13T11:52:47.963Z,3.20
2018-12-13T11:55:26.766Z,3.30
2018-12-13T11:58:00.371Z,3.30
2018-12-13T12:00:27.834Z,3.40
2018-12-13T12:02:55.258Z,3.40
2018-12-13T12:05:21.649Z,3.40
2018-12-13T12:07:48.128Z,3.40
2018-12-13T12:10:14.580Z,3.40
2018-12-13T12:12:41.540Z,3.40
2018-12-13T12:15:08.303Z,3.50
2018-12-13T12:17:35.095Z,3.50
2018-12-13T12:20:07.800Z,3.50
2018-12-13T12:22:34.230Z,3.40
2018-12-13T12:25:00.912Z,3.40
2018-12-13T12:27:27.194Z,3.30
2018-12-13T12:29:53.476Z,3.30
2018-12-13T12:32:19.700Z,3.30
2018-12-13T12:34:45.924Z,3.30
2018-12-13T12:37:12.455Z,3.30
2018-12-13T12:39:45.009Z,3.30
2018-12-13T12:42:11.393Z,3.40
2018-12-13T12:44:39.781Z,3.50
2018-12-13T12:47:06.111Z,3.50
2018-12-13T12:49:33.420Z,3.50
2018-12-13T12:52:05.986Z,3.50
2018-12-13T12:54:38.867Z,3.50
2018-12-13T12:57:06.247Z,3.50
2018-12-13T12:59:32.607Z,3.50
2018-12-13T13:01:59.130Z,3.60
2018-12-13T13:04:25.548Z,3.60
2018-12-13T13:06:51.889Z,3.70
2018-12-13T13:09:24.812Z,3.80
2018-12-13T13:11:46.877Z,3.90
2018-12-13T13:14:13.291Z,4.00
2018-12-13T13:16:45.907Z,4.10
2018-12-13T13:19:18.552Z,4.10
2018-12-13T13:21:45.312Z,4.10
2018-12-13T13:24:11.648Z,4.00
2018-12-13T13:26:43.929Z,4.00
2018-12-13T13:29:10.341Z,4.00
2018-12-13T13:31:36.973Z,3.90
2018-12-13T13:34:03.508Z,3.90
2018-12-13T13:36:35.902Z,3.90
2018-12-13T13:39:05.184Z,3.90
2018-12-13T13:41:31.487Z,3.90
2018-12-13T13:44:04.082Z,3.90
2018-12-13T13:46:30.627Z,3.90
2018-12-13T13:48:57.034Z,3.90
2018-12-13T13:51:23.500Z,3.90
2018-12-13T13:53:49.927Z,3.90
2018-12-13T13:56:22.437Z,3.90
2018-12-13T13:58:48.783Z,3.90
2018-12-13T14:01:15.062Z,3.80
2018-12-13T14:03:47.795Z,3.80
2018-12-13T14:06:14.875Z,3.80
2018-12-13T14:08:41.412Z,3.80
2018-12-13T14:11:11.910Z,3.80
2018-12-13T14:13:38.246Z,3.80
2018-12-13T14:16:10.851Z,3.80
2018-12-13T14:18:43.368Z,3.80
2018-12-13T14:21:15.748Z,3.80
2018-12-13T14:23:42.179Z,3.70
2018-12-13T14:26:08.513Z,3.70
2018-12-13T14:28:34.699Z,3.70
2018-12-13T14:31:00.979Z,3.70
2018-12-13T14:33:27.453Z,3.70
2018-12-13T14:35:53.869Z,3.60
2018-12-13T14:38:20.171Z,3.60
2018-12-13T14:40:52.603Z,3.60
2018-12-13T14:43:19.098Z,3.60
2018-12-13T14:45:45.358Z,3.60
2018-12-13T14:48:12.042Z,3.50
2018-12-13T14:50:44.717Z,3.40
2018-12-13T14:53:10.871Z,3.40
2018-12-13T14:55:37.141Z,3.40
2018-12-13T14:58:09.705Z,3.40
2018-12-13T15:00:36.323Z,3.40
2018-12-13T15:03:02.770Z,3.40
2018-12-13T15:05:30.097Z,3.40
2018-12-13T15:08:02.685Z,3.40
2018-12-13T15:10:29.248Z,3.40
2018-12-13T15:12:55.519Z,3.40
2018-12-13T15:15:21.963Z,3.40
2018-12-13T15:17:54.550Z,3.40
2018-12-13T15:20:20.850Z,3.40
2018-12-13T15:22:47.115Z,3.40
2018-12-13T15:25:19.647Z,3.50
2018-12-13T15:27:52.521Z,3.40
2018-12-13T15:30:18.827Z,3.50
2018-12-13T15:32:51.240Z,3.40
2018-12-13T15:35:17.916Z,3.50
2018-12-13T15:37:50.616Z,3.40
2018-12-13T15:40:23.011Z,3.40
2018-12-13T15:42:49.457Z,3.40
2018-12-13T15:45:21.927Z,3.40
2018-12-13T15:47:54.805Z,3.40
2018-12-13T15:50:28.466Z,3.40
2018-12-13T15:53:01.056Z,3.40
2018-12-13T15:55:27.339Z,3.40
2018-12-13T15:57:53.597Z,3.40
2018-12-13T16:00:19.917Z,3.40
2018-12-13T16:02:52.452Z,3.40
2018-12-13T16:05:18.986Z,3.40
2018-12-13T16:07:45.386Z,3.40
2018-12-13T16:10:11.759Z,3.40
2018-12-13T16:12:38.013Z,3.40
2018-12-13T16:15:05.523Z,3.40
2018-12-13T16:17:32.992Z,3.40
2018-12-13T16:20:05.723Z,3.40
2018-12-13T16:22:32.110Z,3.50
2018-12-13T16:24:58.503Z,3.40
2018-12-13T16:27:25.713Z,3.40
2018-12-13T16:29:53.016Z,3.40
2018-12-13T16:32:20.234Z,3.40
2018-12-13T16:34:52.809Z,3.40
2018-12-13T16:37:25.336Z,3.30
2018-12-13T16:39:57.801Z,3.30
2018-12-13T16:42:24.295Z,3.30
2018-12-13T16:44:50.823Z,3.30
2018-12-13T16:47:17.186Z,3.30
2018-12-13T16:49:43.576Z,3.40
2018-12-13T16:52:10.739Z,3.30
2018-12-13T16:54:38.001Z,3.40
2018-12-13T16:57:10.587Z,3.40
2018-12-13T16:59:37.106Z,3.30
2018-12-13T17:02:03.480Z,3.30
2018-12-13T17:04:36.420Z,3.30
2018-12-13T17:07:02.695Z,3.20
2018-12-13T17:09:29.269Z,3.20
2018-12-13T17:12:01.764Z,3.30
2018-12-13T17:14:28.411Z,3.30
2018-12-13T17:16:54.785Z,3.30
2018-12-13T17:19:22.155Z,3.30
2018-12-13T17:21:48.560Z,3.30
2018-12-13T17:24:21.754Z,3.30
2018-12-13T17:26:48.343Z,3.30
2018-12-13T17:29:18.631Z,3.30
2018-12-13T17:31:45.811Z,3.20
2018-12-13T17:34:12.367Z,3.20
2018-12-13T17:36:38.998Z,3.20
2018-12-13T17:39:06.281Z,3.20
2018-12-13T17:41:38.656Z,3.10
2018-12-13T17:44:05.354Z,3.10
2018-12-13T17:46:31.994Z,3.10
2018-12-13T17:48:58.206Z,3.20
2018-12-13T17:51:25.553Z,3.20
2018-12-13T17:53:51.847Z,3.20
2018-12-13T17:56:24.545Z,3.20
2018-12-13T17:58:50.929Z,3.20
2018-12-13T18:01:17.524Z,3.20
2018-12-13T18:03:43.901Z,3.20
2018-12-13T18:06:16.746Z,3.20
2018-12-13T18:08:49.514Z,3.10
2018-12-13T18:11:16.119Z,3.10
2018-12-13T18:13:48.887Z,3.10
2018-12-13T18:16:15.347Z,3.10
2018-12-13T18:18:49.143Z,3.10
2018-12-13T18:21:21.825Z,3.10
2018-12-13T18:23:48.104Z,3.00
2018-12-13T18:26:14.563Z,3.00
2018-12-13T18:28:47.096Z,3.00
2018-12-13T18:31:19.699Z,3.00
2018-12-13T18:33:46.159Z,3.00
2018-12-13T18:36:12.626Z,3.00
2018-12-13T18:38:39.138Z,3.00
2018-12-13T18:41:05.896Z,2.90
2018-12-13T18:43:38.387Z,3.00
2018-12-13T18:46:05.449Z,3.00
2018-12-13T18:48:31.922Z,3.00
2018-12-13T18:50:58.352Z,3.00
2018-12-13T18:53:24.775Z,3.00
2018-12-13T18:55:51.044Z,3.00
2018-12-13T18:58:17.547Z,3.00
2018-12-13T19:00:50.463Z,3.00
2018-12-13T19:03:23.231Z,3.00
2018-12-13T19:05:49.751Z,3.00
2018-12-13T19:08:16.187Z,3.00
2018-12-13T19:10:43.445Z,3.00
2018-12-13T19:13:16.338Z,3.00
2018-12-13T19:15:43.473Z,3.00
2018-12-13T19:18:09.947Z,3.00
2018-12-13T19:20:44.292Z,3.00
2018-12-13T19:23:16.829Z,3.00
2018-12-13T19:25:43.352Z,3.00
2018-12-13T19:28:16.036Z,3.00
2018-12-13T19:30:42.388Z,3.00
2018-12-13T19:33:08.840Z,3.00
2018-12-13T19:35:35.322Z,3.10
2018-12-13T19:38:01.614Z,3.00
2018-12-13T19:40:28.900Z,3.00
2018-12-13T19:43:01.522Z,3.10
2018-12-13T19:45:34.787Z,3.10
2018-12-13T19:48:07.286Z,3.10
2018-12-13T19:50:42.415Z,3.00
2018-12-13T19:53:09.190Z,3.00
2018-12-13T19:55:36.348Z,3.00
2018-12-13T19:58:04.617Z,3.00
2018-12-13T20:00:31.091Z,3.00
2018-12-13T20:02:59.430Z,3.00
2018-12-13T20:05:26.571Z,3.00
2018-12-13T20:07:59.251Z,3.00
2018-12-13T20:10:25.617Z,3.00
2018-12-13T20:12:58.019Z,2.90
2018-12-13T20:15:24.433Z,2.90
2018-12-13T20:17:51.578Z,2.90
2018-12-13T20:20:17.720Z,2.90
2018-12-13T20:22:44.132Z,2.90
2018-12-13T20:25:16.599Z,2.90
2018-12-13T20:27:43.229Z,2.90
2018-12-13T20:30:10.832Z,3.00
2018-12-13T20:32:38.050Z,2.90
2018-12-13T20:35:10.659Z,2.90
2018-12-13T20:37:37.112Z,2.90
2018-12-13T20:40:09.846Z,2.90
2018-12-13T20:42:36.430Z,2.90
2018-12-13T20:45:04.681Z,2.90
2018-12-13T20:47:37.428Z,2.90
2018-12-13T20:50:04.841Z,2.90
2018-12-13T20:52:31.271Z,3.00
2018-12-13T20:54:57.651Z,3.00
2018-12-13T20:57:24.794Z,3.00
2018-12-13T20:59:57.413Z,3.00
2018-12-13T21:02:29.877Z,3.00
2018-12-13T21:04:56.234Z,3.00
2018-12-13T21:07:28.602Z,3.00
2018-12-13T21:09:55.216Z,3.00
2018-12-13T21:12:21.942Z,2.90
2018-12-13T21:14:48.103Z,2.90
2018-12-13T21:17:14.261Z,3.00
2018-12-13T21:19:46.688Z,3.00
2018-12-13T21:22:13.007Z,3.00
2018-12-13T21:24:39.169Z,3.00
2018-12-13T21:27:05.565Z,3.00
2018-12-13T21:29:31.831Z,3.00
2018-12-13T21:31:58.145Z,3.00
2018-12-13T21:34:24.564Z,3.00
2018-12-13T21:36:57.259Z,2.90
2018-12-13T21:39:24.404Z,2.90
2018-12-13T21:41:57.064Z,2.90
2018-12-13T21:44:25.217Z,2.90
2018-12-13T21:46:52.710Z,2.90
2018-12-13T21:49:18.990Z,2.90
2018-12-13T21:51:46.257Z,2.90
2018-12-13T21:54:12.603Z,2.90
2018-12-13T21:56:45.355Z,2.90
2018-12-13T21:59:12.591Z,3.00
2018-12-13T22:01:38.962Z,3.00
2018-12-13T22:04:05.332Z,3.00
2018-12-13T22:06:31.607Z,3.00
2018-12-13T22:08:58.756Z,2.90
2018-12-13T22:11:25.191Z,2.90
2018-12-13T22:13:57.797Z,2.90
2018-12-13T22:16:24.220Z,2.90
2018-12-13T22:18:50.572Z,2.90
2018-12-13T22:21:17.056Z,2.90
2018-12-13T22:23:49.719Z,3.00
2018-12-13T22:26:22.416Z,3.00
2018-12-13T22:28:48.703Z,3.00
2018-12-13T22:31:15.187Z,3.00
2018-12-13T22:33:41.423Z,2.90
2018-12-13T22:36:07.744Z,2.90
2018-12-13T22:38:34.229Z,2.90
2018-12-13T22:41:00.660Z,2.90
2018-12-13T22:43:26.840Z,3.00
2018-12-13T22:45:53.003Z,3.00
2018-12-13T22:48:19.384Z,3.00
2018-12-13T22:50:45.886Z,3.00
2018-12-13T22:53:12.297Z,3.00
2018-12-13T22:55:44.888Z,3.10
2018-12-13T22:58:11.236Z,3.10
2018-12-13T23:00:44.010Z,3.10
2018-12-13T23:03:10.400Z,3.10
2018-12-13T23:05:36.776Z,3.00
2018-12-13T23:08:03.073Z,3.00
2018-12-13T23:10:29.781Z,3.00
2018-12-13T23:13:02.328Z,3.00
2018-12-13T23:15:29.131Z,3.10
2018-12-13T23:18:01.569Z,3.10
2018-12-13T23:20:27.960Z,3.10
2018-12-13T23:23:00.520Z,3.10
2018-12-13T23:25:27.476Z,3.10
2018-12-13T23:27:53.763Z,3.10
2018-12-13T23:30:20.251Z,3.00
2018-12-13T23:32:46.427Z,3.00
2018-12-13T23:35:12.600Z,3.00
2018-12-13T23:37:39.130Z,3.00
2018-12-13T23:40:05.536Z,3.00
2018-12-13T23:42:31.775Z,3.00
2018-12-13T23:45:05.076Z,3.10
2018-12-13T23:47:31.359Z,3.10
2018-12-13T23:49:57.695Z,3.10
2018-12-13T23:52:24.264Z,3.10
2018-12-13T23:54:51.258Z,3.10
2018-12-13T23:57:23.547Z,3.00
2018-12-13T23:59:51.261Z,3.00
